Wednesday, May 23, 2018, 8:58 AM EDT
Back to Local

KEWB, New Bedford Regional Airport

Location: New Bedford, MA, United States Lat: 41.683
Local Time: 8:58 AM EDT (12:58 GMT) Lon: -70.967
Time Zone: US/Eastern Elev: 78 ft

Show me the last for .
Show Decoded

2018-05-23 07:53 METAR KEWB 231153Z 23003KT 10SM BKN006 BKN060 OVC090 14/14 A2988 RMK AO2 SLP118
                 60002 70013 T01440144 10144 20117 55002 =
2018-05-23 07:39 METAR KEWB 231139Z 21004KT 10SM SCT008 BKN060 OVC090 14/14 A2988 RMK AO2
                 T01390139 =
2018-05-23 07:25 METAR KEWB 231125Z 19003KT 10SM BKN008 BKN080 OVC095 14/14 A2988 RMK AO2 CIG
                 004V010 T01390139 =
2018-05-23 07:11 METAR KEWB 231111Z 00000KT 10SM SCT006 BKN075 OVC110 14/14 A2988 RMK AO2
                 T01390139 =
2018-05-23 06:53 METAR KEWB 231053Z 00000KT 10SM SCT008 BKN110 14/14 A2988 RMK AO2 RAE09 SLP117
                 P0000 T01390139 $ =
2018-05-23 06:16 METAR KEWB 231016Z 00000KT 10SM SCT007 SCT055 BKN095 13/13 A2987 RMK AO2 RAE09
                 P0000 T01330133 $ =
2018-05-23 06:10 METAR KEWB 231010Z AUTO 23004KT 10SM BKN009 BKN055 BKN100 13/13 A2988 RMK AO2
                 RAE09 CIG 006V011 P0000 T01330133 $ =
2018-05-23 05:53 METAR KEWB 230953Z AUTO 22003KT 8SM -RA BKN010 BKN050 OVC090 13/13 A2988 RMK AO2
                 RAB12 CIG 006V027 SLP117 P0002 T01330133 $ =
2018-05-23 04:53 METAR KEWB 230853Z AUTO 21005KT 10SM OVC014 13/13 A2989 RMK AO2 SLP120 T01280128
                 55004 $ =
2018-05-23 03:53 METAR KEWB 230753Z AUTO 22003KT 10SM OVC014 12/12 A2988 RMK AO2 SLP117 T01220122
                 $ =
2018-05-23 03:16 METAR KEWB 230716Z AUTO 26003KT 10SM FEW006 OVC016 12/12 A2988 RMK AO2 T01220122
                 $ =
2018-05-23 03:06 METAR KEWB 230706Z AUTO 00000KT 10SM FEW008 OVC016 12/12 A2988 RMK AO2 T01220122
                 $ =
2018-05-23 02:53 METAR KEWB 230653Z AUTO 00000KT 10SM OVC018 12/12 A2987 RMK AO2 SLP116 T01220122
                 $ =
2018-05-23 01:53 METAR KEWB 230553Z AUTO 00000KT 10SM SCT012 OVC020 12/12 A2990 RMK AO2 SLP124
                 60006 T01170117 10128 20111 58029 $ =
2018-05-23 01:16 METAR KEWB 230516Z AUTO 28003KT 10SM OVC012 12/12 A2993 RMK AO2 T01170117 $ =
2018-05-23 00:53 METAR KEWB 230453Z AUTO 00000KT 10SM OVC016 12/12 A2994 RMK AO2 SLP138 T01170117
                 402170089 $ =
2018-05-22 23:53 METAR KEWB 230353Z AUTO 18004KT 10SM BKN021 OVC027 12/11 A2996 RMK AO2 SLP143
                 T01170111 $ =
2018-05-22 23:00 METAR KEWB 230300Z AUTO 18005KT 10SM OVC029 12/12 A2998 RMK AO2 T01170117 $ =
2018-05-22 22:53 METAR KEWB 230253Z AUTO 18005KT 10SM OVC031 12/12 A2998 RMK AO2 RAE0156 SLP153
                 P0000 60006 T01170117 58014 $ =
2018-05-22 22:33 METAR KEWB 230233Z AUTO 21006KT 10SM SCT028 OVC035 12/11 A3000 RMK AO2 RAE0156
                 P0000 T01170111 $ =
2018-05-22 22:01 METAR KEWB 230201Z AUTO 23003KT 10SM BKN028 OVC035 12/12 A3001 RMK AO2 RAE0156
                 P0000 T01170117 $ =
2018-05-22 21:53 METAR KEWB 230153Z 22003KT 10SM -RA BKN030 BKN036 OVC049 12/11 A3002 RMK AO2
                 SLP164 LAST AUGMENTED OBS P0001 T01170111 $ =
2018-05-22 20:53 METAR KEWB 230053Z AUTO 19006KT 10SM -RA OVC040 12/12 A3001 RMK AO2 SLP163 P0005
                 T01220122 $ =
2018-05-22 19:53 METAR KEWB 222353Z AUTO 22003KT 10SM -RA OVC050 13/12 A3003 RMK AO2 SLP167 P0002
                 60005 T01280122 10183 20128 58021 =
2018-05-22 18:53 METAR KEWB 222253Z 21003KT 10SM -RA FEW070 BKN100 OVC120 13/12 A3005 RMK AO2
                 SLP176 P0001 T01330117 =
2018-05-22 17:53 METAR KEWB 222153Z 19004KT 10SM -RA BKN100 OVC110 14/12 A3008 RMK AO2 SLP184
                 P0002 T01390122 =
2018-05-22 16:53 METAR KEWB 222053Z 21009KT 10SM -RA OVC110 16/10 A3009 RMK AO2 RAB01 SLP188
                 P0000 60000 T01610100 58013 =
2018-05-22 15:53 METAR KEWB 221953Z 22007KT 10SM BKN090 OVC110 17/10 A3011 RMK AO2 RAB13E28
                 SLP196 P0000 T01720100 =
2018-05-22 14:53 METAR KEWB 221853Z 21006KT 10SM OVC100 18/12 A3012 RMK AO2 RAB1759E47 SLP198
                 P0000 T01780117 =
2018-05-22 13:53 METAR KEWB 221753Z 20009KT 10SM OVC110 18/11 A3013 RMK AO2 SLP201 T01830106
                 10217 20161 58008 =
2018-05-22 12:53 METAR KEWB 221653Z 20008KT 10SM SCT120 21/07 A3014 RMK AO2 SLP204 T02060067 =
2018-05-22 11:53 METAR KEWB 221553Z 21009KT 10SM CLR 21/11 A3015 RMK AO2 SLP209 T02110106 =
2018-05-22 10:53 METAR KEWB 221453Z 23007KT 10SM CLR 21/12 A3015 RMK AO2 SLP209 T02110117 58003 =
2018-05-22 09:53 METAR KEWB 221353Z 21003KT 10SM CLR 20/12 A3016 RMK AO2 SLP214 T02000122 =

Support USWX by starting your Amazon purchase here.